Terminal Aerodrome Forecast
Issued by NWS

Home | Current Version | Previous Version | Text Only | Print | Product List | Glossary On
Versions: 1 2 3 4 5 6 7 8 9 10 11 12 13 14 15 16 17 18 19 20 21 22 23 24 25
000
FTUS45 KBOI 310057 AAA
TAFMYL
TAF AMD
KMYL 310057Z 3101/3124 26008KT P6SM VCTS BKN100CB BKN200
     FM310230 34006KT P6SM -SHRA SCT050 BKN070
      TEMPO 3103/3105 27012G22KT P6SM OVC060
     FM310700 36006KT P6SM SCT070 BKN100
     FM311900 22008KT P6SM SCT100=

USA.gov is the U.S. government's official web portal to all federal, state and local government web resources and services.